sensor_id;sensor_type;location;lat;lon;timestamp;temperature;humidity
83828;DHT22;74656;48.870;12.562;2024-03-02T00:01:22;7.00;89.90
83828;DHT22;74656;48.870;12.562;2024-03-02T00:04:24;6.90;89.50
83828;DHT22;74656;48.870;12.562;2024-03-02T00:07:26;7.00;89.30
83828;DHT22;74656;48.870;12.562;2024-03-02T00:10:38;6.90;89.20
83828;DHT22;74656;48.870;12.562;2024-03-02T00:13:41;6.90;89.30
83828;DHT22;74656;48.870;12.562;2024-03-02T00:16:43;7.00;89.20
83828;DHT22;74656;48.870;12.562;2024-03-02T00:19:45;7.00;89.00
83828;DHT22;74656;48.870;12.562;2024-03-02T00:22:46;7.00;88.80
83828;DHT22;74656;48.870;12.562;2024-03-02T00:25:54;7.00;88.60
83828;DHT22;74656;48.870;12.562;2024-03-02T00:28:56;7.00;88.80
83828;DHT22;74656;48.870;12.562;2024-03-02T00:31:58;7.00;88.40
83828;DHT22;74656;48.870;12.562;2024-03-02T00:35:00;7.00;88.30
83828;DHT22;74656;48.870;12.562;2024-03-02T00:38:06;7.00;88.40
83828;DHT22;74656;48.870;12.562;2024-03-02T00:41:09;7.00;88.30
83828;DHT22;74656;48.870;12.562;2024-03-02T00:44:19;7.00;88.30
83828;DHT22;74656;48.870;12.562;2024-03-02T00:47:22;7.00;88.40
83828;DHT22;74656;48.870;12.562;2024-03-02T00:50:24;7.00;88.50
83828;DHT22;74656;48.870;12.562;2024-03-02T00:53:32;7.00;88.50
83828;DHT22;74656;48.870;12.562;2024-03-02T00:56:34;7.00;88.40
83828;DHT22;74656;48.870;12.562;2024-03-02T00:59:35;7.00;88.60
83828;DHT22;74656;48.870;12.562;2024-03-02T01:02:38;7.00;88.80
83828;DHT22;74656;48.870;12.562;2024-03-02T01:05:43;6.90;88.90
83828;DHT22;74656;48.870;12.562;2024-03-02T01:08:45;6.90;89.10
83828;DHT22;74656;48.870;12.562;2024-03-02T01:11:47;6.90;89.00
83828;DHT22;74656;48.870;12.562;2024-03-02T01:14:49;7.00;89.00
83828;DHT22;74656;48.870;12.562;2024-03-02T01:17:52;7.00;88.90
83828;DHT22;74656;48.870;12.562;2024-03-02T01:20:56;7.00;88.90
83828;DHT22;74656;48.870;12.562;2024-03-02T01:23:59;7.00;89.00
83828;DHT22;74656;48.870;12.562;2024-03-02T01:27:01;7.00;88.70
83828;DHT22;74656;48.870;12.562;2024-03-02T01:30:04;7.00;88.70
83828;DHT22;74656;48.870;12.562;2024-03-02T01:33:06;7.00;88.80
83828;DHT22;74656;48.870;12.562;2024-03-02T01:36:08;7.00;89.00
83828;DHT22;74656;48.870;12.562;2024-03-02T01:39:09;7.00;88.90
83828;DHT22;74656;48.870;12.562;2024-03-02T01:42:11;7.00;89.00
83828;DHT22;74656;48.870;12.562;2024-03-02T01:45:13;7.00;89.20
83828;DHT22;74656;48.870;12.562;2024-03-02T01:48:15;6.90;89.10
83828;DHT22;74656;48.870;12.562;2024-03-02T01:51:17;7.00;89.20
83828;DHT22;74656;48.870;12.562;2024-03-02T01:54:20;7.00;89.10
83828;DHT22;74656;48.870;12.562;2024-03-02T01:57:24;7.10;89.10
83828;DHT22;74656;48.870;12.562;2024-03-02T02:00:27;7.00;88.80
83828;DHT22;74656;48.870;12.562;2024-03-02T02:03:29;7.00;89.10
83828;DHT22;74656;48.870;12.562;2024-03-02T02:06:31;7.00;89.20
83828;DHT22;74656;48.870;12.562;2024-03-02T02:09:33;7.00;89.30
83828;DHT22;74656;48.870;12.562;2024-03-02T02:12:36;7.00;89.30
83828;DHT22;74656;48.870;12.562;2024-03-02T02:15:38;7.10;89.30
83828;DHT22;74656;48.870;12.562;2024-03-02T02:18:40;7.10;89.10
83828;DHT22;74656;48.870;12.562;2024-03-02T02:21:43;7.00;89.00
83828;DHT22;74656;48.870;12.562;2024-03-02T02:24:45;7.00;89.10
83828;DHT22;74656;48.870;12.562;2024-03-02T02:27:46;7.00;89.20
83828;DHT22;74656;48.870;12.562;2024-03-02T02:30:49;7.00;89.50
83828;DHT22;74656;48.870;12.562;2024-03-02T02:33:51;7.10;89.10
83828;DHT22;74656;48.870;12.562;2024-03-02T02:36:53;7.00;89.00
83828;DHT22;74656;48.870;12.562;2024-03-02T02:39:55;7.00;89.20
83828;DHT22;74656;48.870;12.562;2024-03-02T02:42:58;7.00;89.30
83828;DHT22;74656;48.870;12.562;2024-03-02T02:46:00;7.00;89.40
83828;DHT22;74656;48.870;12.562;2024-03-02T02:49:03;7.00;89.30
83828;DHT22;74656;48.870;12.562;2024-03-02T02:52:05;7.10;89.10
83828;DHT22;74656;48.870;12.562;2024-03-02T02:55:12;7.10;89.10
83828;DHT22;74656;48.870;12.562;2024-03-02T02:58:14;7.10;89.00
83828;DHT22;74656;48.870;12.562;2024-03-02T03:01:16;7.00;88.90
83828;DHT22;74656;48.870;12.562;2024-03-02T03:04:19;7.20;91.40
83828;DHT22;74656;48.870;12.562;2024-03-02T03:07:21;7.50;91.60
83828;DHT22;74656;48.870;12.562;2024-03-02T03:10:23;7.60;90.20
83828;DHT22;74656;48.870;12.562;2024-03-02T03:13:24;7.60;88.80
83828;DHT22;74656;48.870;12.562;2024-03-02T03:16:26;7.50;88.00
83828;DHT22;74656;48.870;12.562;2024-03-02T03:19:28;7.40;87.70
83828;DHT22;74656;48.870;12.562;2024-03-02T03:22:31;7.40;87.90
83828;DHT22;74656;48.870;12.562;2024-03-02T03:25:34;7.30;87.80
83828;DHT22;74656;48.870;12.562;2024-03-02T03:28:35;7.30;87.80
83828;DHT22;74656;48.870;12.562;2024-03-02T03:31:37;7.30;87.90
83828;DHT22;74656;48.870;12.562;2024-03-02T03:34:39;7.30;88.10
83828;DHT22;74656;48.870;12.562;2024-03-02T03:37:42;7.20;88.10
83828;DHT22;74656;48.870;12.562;2024-03-02T03:40:44;7.10;88.40
83828;DHT22;74656;48.870;12.562;2024-03-02T03:43:46;7.20;88.60
83828;DHT22;74656;48.870;12.562;2024-03-02T03:46:47;7.10;88.80
83828;DHT22;74656;48.870;12.562;2024-03-02T03:49:49;7.10;89.00
83828;DHT22;74656;48.870;12.562;2024-03-02T03:52:51;7.10;88.90
83828;DHT22;74656;48.870;12.562;2024-03-02T03:55:54;7.10;89.10
83828;DHT22;74656;48.870;12.562;2024-03-02T03:58:56;7.10;89.00
83828;DHT22;74656;48.870;12.562;2024-03-02T04:01:58;7.10;89.00
83828;DHT22;74656;48.870;12.562;2024-03-02T04:05:00;7.00;89.00
83828;DHT22;74656;48.870;12.562;2024-03-02T04:08:02;7.00;89.20
83828;DHT22;74656;48.870;12.562;2024-03-02T04:11:05;7.00;89.30
83828;DHT22;74656;48.870;12.562;2024-03-02T04:14:07;7.00;89.50
83828;DHT22;74656;48.870;12.562;2024-03-02T04:17:09;7.00;89.50
83828;DHT22;74656;48.870;12.562;2024-03-02T04:20:12;7.00;89.40
83828;DHT22;74656;48.870;12.562;2024-03-02T04:23:14;7.20;88.90
83828;DHT22;74656;48.870;12.562;2024-03-02T04:26:15;7.10;88.80
83828;DHT22;74656;48.870;12.562;2024-03-02T04:29:18;7.10;88.80
83828;DHT22;74656;48.870;12.562;2024-03-02T04:32:20;7.00;89.00
83828;DHT22;74656;48.870;12.562;2024-03-02T04:35:22;7.00;89.00
83828;DHT22;74656;48.870;12.562;2024-03-02T04:38:24;7.00;89.10
83828;DHT22;74656;48.870;12.562;2024-03-02T04:41:26;7.00;89.10
83828;DHT22;74656;48.870;12.562;2024-03-02T04:44:28;7.00;89.10
83828;DHT22;74656;48.870;12.562;2024-03-02T04:47:30;7.00;89.20
83828;DHT22;74656;48.870;12.562;2024-03-02T04:50:31;6.90;89.40
83828;DHT22;74656;48.870;12.562;2024-03-02T04:53:33;7.00;89.60
83828;DHT22;74656;48.870;12.562;2024-03-02T04:56:35;6.90;89.50
83828;DHT22;74656;48.870;12.562;2024-03-02T04:59:37;6.90;89.70
83828;DHT22;74656;48.870;12.562;2024-03-02T05:02:39;6.90;89.90
83828;DHT22;74656;48.870;12.562;2024-03-02T05:05:41;6.90;89.90
83828;DHT22;74656;48.870;12.562;2024-03-02T05:08:43;6.90;90.00
83828;DHT22;74656;48.870;12.562;2024-03-02T05:11:45;6.90;90.00
83828;DHT22;74656;48.870;12.562;2024-03-02T05:14:47;6.90;90.00
83828;DHT22;74656;48.870;12.562;2024-03-02T05:17:49;7.00;89.80
83828;DHT22;74656;48.870;12.562;2024-03-02T05:20:51;7.00;89.60
83828;DHT22;74656;48.870;12.562;2024-03-02T05:23:54;7.00;89.30
83828;DHT22;74656;48.870;12.562;2024-03-02T05:26:56;7.10;89.20
83828;DHT22;74656;48.870;12.562;2024-03-02T05:29:59;7.00;88.90
83828;DHT22;74656;48.870;12.562;2024-03-02T05:33:01;7.00;89.10
83828;DHT22;74656;48.870;12.562;2024-03-02T05:36:04;7.00;89.30
83828;DHT22;74656;48.870;12.562;2024-03-02T05:39:06;7.00;89.10
83828;DHT22;74656;48.870;12.562;2024-03-02T05:42:08;7.00;89.20
83828;DHT22;74656;48.870;12.562;2024-03-02T05:45:10;6.90;89.10
83828;DHT22;74656;48.870;12.562;2024-03-02T05:48:12;6.90;89.30
83828;DHT22;74656;48.870;12.562;2024-03-02T05:51:14;7.00;89.20
83828;DHT22;74656;48.870;12.562;2024-03-02T05:54:17;7.00;89.00
83828;DHT22;74656;48.870;12.562;2024-03-02T05:57:19;7.00;88.90
83828;DHT22;74656;48.870;12.562;2024-03-02T06:00:21;7.00;89.10
83828;DHT22;74656;48.870;12.562;2024-03-02T06:03:23;7.00;89.10
83828;DHT22;74656;48.870;12.562;2024-03-02T06:06:25;7.00;89.00
83828;DHT22;74656;48.870;12.562;2024-03-02T06:09:28;7.10;88.90
83828;DHT22;74656;48.870;12.562;2024-03-02T06:12:31;7.00;88.70
83828;DHT22;74656;48.870;12.562;2024-03-02T06:15:33;7.00;88.70
83828;DHT22;74656;48.870;12.562;2024-03-02T06:18:35;7.00;89.00
83828;DHT22;74656;48.870;12.562;2024-03-02T06:21:37;7.10;89.10
83828;DHT22;74656;48.870;12.562;2024-03-02T06:24:40;7.00;89.30
83828;DHT22;74656;48.870;12.562;2024-03-02T06:27:42;7.10;89.00
83828;DHT22;74656;48.870;12.562;2024-03-02T06:30:43;7.10;88.50
83828;DHT22;74656;48.870;12.562;2024-03-02T06:33:45;7.10;88.40
83828;DHT22;74656;48.870;12.562;2024-03-02T06:36:47;7.20;88.10
83828;DHT22;74656;48.870;12.562;2024-03-02T06:39:49;7.20;86.70
83828;DHT22;74656;48.870;12.562;2024-03-02T06:42:51;7.20;87.30
83828;DHT22;74656;48.870;12.562;2024-03-02T06:45:53;7.20;87.30
83828;DHT22;74656;48.870;12.562;2024-03-02T06:48:55;7.30;86.90
83828;DHT22;74656;48.870;12.562;2024-03-02T06:51:57;7.30;86.60
83828;DHT22;74656;48.870;12.562;2024-03-02T06:55:00;7.40;86.00
83828;DHT22;74656;48.870;12.562;2024-03-02T06:58:02;7.20;86.20
83828;DHT22;74656;48.870;12.562;2024-03-02T07:01:04;7.10;87.30
83828;DHT22;74656;48.870;12.562;2024-03-02T07:04:07;7.10;87.00
83828;DHT22;74656;48.870;12.562;2024-03-02T07:07:08;7.20;86.70
83828;DHT22;74656;48.870;12.562;2024-03-02T07:10:10;7.20;86.60
83828;DHT22;74656;48.870;12.562;2024-03-02T07:13:12;7.20;87.00
83828;DHT22;74656;48.870;12.562;2024-03-02T07:16:14;7.20;86.90
83828;DHT22;74656;48.870;12.562;2024-03-02T07:19:15;7.20;87.20
83828;DHT22;74656;48.870;12.562;2024-03-02T07:22:17;7.20;87.10
83828;DHT22;74656;48.870;12.562;2024-03-02T07:25:19;7.20;87.10
83828;DHT22;74656;48.870;12.562;2024-03-02T07:28:24;7.30;86.90
83828;DHT22;74656;48.870;12.562;2024-03-02T07:31:26;7.50;86.50
83828;DHT22;74656;48.870;12.562;2024-03-02T07:34:27;7.60;85.70
83828;DHT22;74656;48.870;12.562;2024-03-02T07:37:30;7.60;85.80
83828;DHT22;74656;48.870;12.562;2024-03-02T07:40:31;7.60;85.80
83828;DHT22;74656;48.870;12.562;2024-03-02T07:43:33;7.80;85.40
83828;DHT22;74656;48.870;12.562;2024-03-02T07:46:35;7.90;84.70
83828;DHT22;74656;48.870;12.562;2024-03-02T07:49:38;7.90;84.20
83828;DHT22;74656;48.870;12.562;2024-03-02T07:52:39;8.00;84.10
83828;DHT22;74656;48.870;12.562;2024-03-02T07:55:42;8.10;83.80
83828;DHT22;74656;48.870;12.562;2024-03-02T07:58:43;8.10;83.30
83828;DHT22;74656;48.870;12.562;2024-03-02T08:01:45;8.20;82.90
83828;DHT22;74656;48.870;12.562;2024-03-02T08:04:47;8.20;82.10
83828;DHT22;74656;48.870;12.562;2024-03-02T08:07:49;8.30;82.30
83828;DHT22;74656;48.870;12.562;2024-03-02T08:10:51;8.40;81.90
83828;DHT22;74656;48.870;12.562;2024-03-02T08:13:53;8.30;82.20
83828;DHT22;74656;48.870;12.562;2024-03-02T08:16:55;8.40;82.20
83828;DHT22;74656;48.870;12.562;2024-03-02T08:19:57;8.40;81.90
83828;DHT22;74656;48.870;12.562;2024-03-02T08:22:59;8.50;82.00
83828;DHT22;74656;48.870;12.562;2024-03-02T08:26:01;8.70;81.10
83828;DHT22;74656;48.870;12.562;2024-03-02T08:29:03;8.70;81.20
83828;DHT22;74656;48.870;12.562;2024-03-02T08:32:06;8.80;80.60
83828;DHT22;74656;48.870;12.562;2024-03-02T08:35:07;8.90;80.20
83828;DHT22;74656;48.870;12.562;2024-03-02T08:38:09;9.10;79.40
83828;DHT22;74656;48.870;12.562;2024-03-02T08:41:11;9.20;79.20
83828;DHT22;74656;48.870;12.562;2024-03-02T08:44:13;9.30;78.40
83828;DHT22;74656;48.870;12.562;2024-03-02T08:47:15;9.60;77.20
83828;DHT22;74656;48.870;12.562;2024-03-02T08:50:17;9.70;76.70
83828;DHT22;74656;48.870;12.562;2024-03-02T08:53:19;9.90;76.20
83828;DHT22;74656;48.870;12.562;2024-03-02T08:56:21;10.00;75.70
83828;DHT22;74656;48.870;12.562;2024-03-02T08:59:22;10.00;76.10
83828;DHT22;74656;48.870;12.562;2024-03-02T09:02:24;10.10;75.10
83828;DHT22;74656;48.870;12.562;2024-03-02T09:05:26;10.20;74.90
83828;DHT22;74656;48.870;12.562;2024-03-02T09:08:28;10.10;74.90
83828;DHT22;74656;48.870;12.562;2024-03-02T09:11:30;10.10;74.90
83828;DHT22;74656;48.870;12.562;2024-03-02T09:14:32;10.20;75.80
83828;DHT22;74656;48.870;12.562;2024-03-02T09:17:34;10.20;75.10
83828;DHT22;74656;48.870;12.562;2024-03-02T09:20:36;10.00;74.80
83828;DHT22;74656;48.870;12.562;2024-03-02T09:23:37;10.20;74.30
83828;DHT22;74656;48.870;12.562;2024-03-02T09:26:39;10.30;73.30
83828;DHT22;74656;48.870;12.562;2024-03-02T09:29:41;10.50;71.90
83828;DHT22;74656;48.870;12.562;2024-03-02T09:32:43;10.70;71.40
83828;DHT22;74656;48.870;12.562;2024-03-02T09:35:46;10.90;70.60
83828;DHT22;74656;48.870;12.562;2024-03-02T09:38:48;11.20;69.20
83828;DHT22;74656;48.870;12.562;2024-03-02T09:41:50;11.40;67.50
83828;DHT22;74656;48.870;12.562;2024-03-02T09:44:52;11.50;68.00
83828;DHT22;74656;48.870;12.562;2024-03-02T09:47:54;11.40;68.10
83828;DHT22;74656;48.870;12.562;2024-03-02T09:50:56;11.50;66.40
83828;DHT22;74656;48.870;12.562;2024-03-02T09:54:01;11.50;66.60
83828;DHT22;74656;48.870;12.562;2024-03-02T09:57:18;11.60;65.60
83828;DHT22;74656;48.870;12.562;2024-03-02T10:00:20;11.70;66.40
83828;DHT22;74656;48.870;12.562;2024-03-02T10:03:26;11.90;64.50
83828;DHT22;74656;48.870;12.562;2024-03-02T10:06:29;12.00;63.70
83828;DHT22;74656;48.870;12.562;2024-03-02T10:09:31;12.00;64.20
83828;DHT22;74656;48.870;12.562;2024-03-02T10:12:33;12.10;64.40
83828;DHT22;74656;48.870;12.562;2024-03-02T10:15:35;12.40;64.60
83828;DHT22;74656;48.870;12.562;2024-03-02T10:18:37;12.70;62.40
83828;DHT22;74656;48.870;12.562;2024-03-02T10:21:40;12.60;61.70
83828;DHT22;74656;48.870;12.562;2024-03-02T10:24:43;12.50;62.70
83828;DHT22;74656;48.870;12.562;2024-03-02T10:27:50;12.40;63.30
83828;DHT22;74656;48.870;12.562;2024-03-02T10:30:52;12.80;62.40
83828;DHT22;74656;48.870;12.562;2024-03-02T10:33:55;13.00;61.20
83828;DHT22;74656;48.870;12.562;2024-03-02T10:36:57;13.20;60.30
83828;DHT22;74656;48.870;12.562;2024-03-02T10:40:05;13.30;59.70
83828;DHT22;74656;48.870;12.562;2024-03-02T10:43:07;13.20;59.80
83828;DHT22;74656;48.870;12.562;2024-03-02T10:46:10;13.20;60.10
83828;DHT22;74656;48.870;12.562;2024-03-02T10:49:12;13.70;59.80
83828;DHT22;74656;48.870;12.562;2024-03-02T10:52:15;14.20;57.10
83828;DHT22;74656;48.870;12.562;2024-03-02T10:55:17;14.40;55.70
83828;DHT22;74656;48.870;12.562;2024-03-02T10:58:19;14.90;56.00
83828;DHT22;74656;48.870;12.562;2024-03-02T11:01:21;15.30;54.50
83828;DHT22;74656;48.870;12.562;2024-03-02T11:04:25;15.20;52.60
83828;DHT22;74656;48.870;12.562;2024-03-02T11:07:27;15.10;54.20
83828;DHT22;74656;48.870;12.562;2024-03-02T11:10:50;15.10;53.70
83828;DHT22;74656;48.870;12.562;2024-03-02T11:13:53;14.70;54.60
83828;DHT22;74656;48.870;12.562;2024-03-02T11:16:57;14.40;56.30
83828;DHT22;74656;48.870;12.562;2024-03-02T11:19:59;14.40;55.70
83828;DHT22;74656;48.870;12.562;2024-03-02T11:23:06;14.50;55.80
83828;DHT22;74656;48.870;12.562;2024-03-02T11:26:21;14.60;55.10
83828;DHT22;74656;48.870;12.562;2024-03-02T11:32:37;14.30;57.00
83828;DHT22;74656;48.870;12.562;2024-03-02T11:35:43;14.80;54.60
83828;DHT22;74656;48.870;12.562;2024-03-02T11:38:46;14.80;54.70
83828;DHT22;74656;48.870;12.562;2024-03-02T11:41:48;14.60;55.40
83828;DHT22;74656;48.870;12.562;2024-03-02T11:44:50;15.10;54.10
83828;DHT22;74656;48.870;12.562;2024-03-02T11:47:57;16.70;51.40
83828;DHT22;74656;48.870;12.562;2024-03-02T11:51:00;16.80;49.30
83828;DHT22;74656;48.870;12.562;2024-03-02T11:54:03;16.00;50.50
83828;DHT22;74656;48.870;12.562;2024-03-02T11:57:08;16.10;50.80
83828;DHT22;74656;48.870;12.562;2024-03-02T12:00:17;15.90;51.10
83828;DHT22;74656;48.870;12.562;2024-03-02T12:03:21;17.00;49.60
83828;DHT22;74656;48.870;12.562;2024-03-02T12:06:24;17.40;47.50
83828;DHT22;74656;48.870;12.562;2024-03-02T12:09:29;17.10;47.70
83828;DHT22;74656;48.870;12.562;2024-03-02T12:12:31;18.20;45.90
83828;DHT22;74656;48.870;12.562;2024-03-02T12:15:34;19.20;43.70
83828;DHT22;74656;48.870;12.562;2024-03-02T12:18:37;19.00;43.30
83828;DHT22;74656;48.870;12.562;2024-03-02T12:21:38;17.20;46.70
83828;DHT22;74656;48.870;12.562;2024-03-02T12:24:41;16.80;48.40
83828;DHT22;74656;48.870;12.562;2024-03-02T12:27:44;15.50;51.30
83828;DHT22;74656;48.870;12.562;2024-03-02T12:30:46;15.20;53.50
83828;DHT22;74656;48.870;12.562;2024-03-02T12:33:48;15.70;50.80
83828;DHT22;74656;48.870;12.562;2024-03-02T12:36:50;15.70;51.20
83828;DHT22;74656;48.870;12.562;2024-03-02T12:39:52;15.30;52.70
83828;DHT22;74656;48.870;12.562;2024-03-02T12:42:54;15.10;52.10
83828;DHT22;74656;48.870;12.562;2024-03-02T12:45:56;14.60;54.60
83828;DHT22;74656;48.870;12.562;2024-03-02T12:49:04;15.20;54.10
83828;DHT22;74656;48.870;12.562;2024-03-02T12:52:08;16.00;52.80
83828;DHT22;74656;48.870;12.562;2024-03-02T12:55:13;17.80;48.70
83828;DHT22;74656;48.870;12.562;2024-03-02T12:58:22;19.90;44.50
83828;DHT22;74656;48.870;12.562;2024-03-02T13:01:24;21.30;40.50
83828;DHT22;74656;48.870;12.562;2024-03-02T13:04:28;21.60;38.90
83828;DHT22;74656;48.870;12.562;2024-03-02T13:07:29;21.50;39.30
83828;DHT22;74656;48.870;12.562;2024-03-02T13:10:32;22.20;38.40
83828;DHT22;74656;48.870;12.562;2024-03-02T13:13:34;23.40;35.70
83828;DHT22;74656;48.870;12.562;2024-03-02T13:16:39;22.40;36.80
83828;DHT22;74656;48.870;12.562;2024-03-02T13:19:59;21.80;38.60
83828;DHT22;74656;48.870;12.562;2024-03-02T13:23:00;22.30;37.80
83828;DHT22;74656;48.870;12.562;2024-03-02T13:26:03;22.90;36.80
83828;DHT22;74656;48.870;12.562;2024-03-02T13:29:04;23.40;36.30
83828;DHT22;74656;48.870;12.562;2024-03-02T13:32:07;25.70;33.10
83828;DHT22;74656;48.870;12.562;2024-03-02T13:35:08;26.70;30.60
83828;DHT22;74656;48.870;12.562;2024-03-02T13:38:10;26.80;30.50
83828;DHT22;74656;48.870;12.562;2024-03-02T13:41:12;27.40;29.90
83828;DHT22;74656;48.870;12.562;2024-03-02T13:44:14;26.40;30.40
83828;DHT22;74656;48.870;12.562;2024-03-02T13:47:16;26.20;31.80
83828;DHT22;74656;48.870;12.562;2024-03-02T13:50:18;25.10;33.40
83828;DHT22;74656;48.870;12.562;2024-03-02T13:53:20;25.40;33.40
83828;DHT22;74656;48.870;12.562;2024-03-02T13:56:22;26.10;31.90
83828;DHT22;74656;48.870;12.562;2024-03-02T13:59:24;25.70;31.70
83828;DHT22;74656;48.870;12.562;2024-03-02T14:02:26;25.70;32.00
83828;DHT22;74656;48.870;12.562;2024-03-02T14:05:28;26.80;30.90
83828;DHT22;74656;48.870;12.562;2024-03-02T14:08:30;25.70;31.50
83828;DHT22;74656;48.870;12.562;2024-03-02T14:11:33;26.40;31.90
83828;DHT22;74656;48.870;12.562;2024-03-02T14:14:35;26.40;30.70
83828;DHT22;74656;48.870;12.562;2024-03-02T14:17:36;26.00;31.80
83828;DHT22;74656;48.870;12.562;2024-03-02T14:20:38;25.50;32.30
83828;DHT22;74656;48.870;12.562;2024-03-02T14:23:42;25.40;31.40
83828;DHT22;74656;48.870;12.562;2024-03-02T14:26:45;26.00;31.60
83828;DHT22;74656;48.870;12.562;2024-03-02T14:29:47;25.80;31.70
83828;DHT22;74656;48.870;12.562;2024-03-02T14:32:49;25.30;32.40
83828;DHT22;74656;48.870;12.562;2024-03-02T14:35:51;25.10;33.30
83828;DHT22;74656;48.870;12.562;2024-03-02T14:38:53;26.80;30.70
83828;DHT22;74656;48.870;12.562;2024-03-02T14:41:55;25.20;32.60
83828;DHT22;74656;48.870;12.562;2024-03-02T14:44:57;26.30;32.00
83828;DHT22;74656;48.870;12.562;2024-03-02T14:47:58;25.80;31.90
83828;DHT22;74656;48.870;12.562;2024-03-02T14:51:01;25.30;32.60
83828;DHT22;74656;48.870;12.562;2024-03-02T14:54:03;25.20;33.00
83828;DHT22;74656;48.870;12.562;2024-03-02T14:57:05;25.30;32.90
83828;DHT22;74656;48.870;12.562;2024-03-02T15:00:07;25.10;34.70
83828;DHT22;74656;48.870;12.562;2024-03-02T15:03:09;25.20;34.10
83828;DHT22;74656;48.870;12.562;2024-03-02T15:06:10;25.20;33.00
83828;DHT22;74656;48.870;12.562;2024-03-02T15:09:12;24.30;33.60
83828;DHT22;74656;48.870;12.562;2024-03-02T15:12:14;23.30;35.90
83828;DHT22;74656;48.870;12.562;2024-03-02T15:15:16;22.80;39.00
83828;DHT22;74656;48.870;12.562;2024-03-02T15:18:18;22.30;37.70
83828;DHT22;74656;48.870;12.562;2024-03-02T15:21:19;22.30;38.10
83828;DHT22;74656;48.870;12.562;2024-03-02T15:24:23;22.20;38.50
83828;DHT22;74656;48.870;12.562;2024-03-02T15:27:25;22.40;38.30
83828;DHT22;74656;48.870;12.562;2024-03-02T15:30:26;22.20;38.90
83828;DHT22;74656;48.870;12.562;2024-03-02T15:33:29;22.40;38.80
83828;DHT22;74656;48.870;12.562;2024-03-02T15:36:32;22.70;38.70
83828;DHT22;74656;48.870;12.562;2024-03-02T15:39:33;22.90;37.30
83828;DHT22;74656;48.870;12.562;2024-03-02T15:42:35;22.80;37.60
83828;DHT22;74656;48.870;12.562;2024-03-02T15:45:37;22.50;37.90
83828;DHT22;74656;48.870;12.562;2024-03-02T15:48:40;22.30;38.30
83828;DHT22;74656;48.870;12.562;2024-03-02T15:51:42;21.60;39.70
83828;DHT22;74656;48.870;12.562;2024-03-02T15:54:45;21.40;39.70
83828;DHT22;74656;48.870;12.562;2024-03-02T15:57:47;21.00;40.80
83828;DHT22;74656;48.870;12.562;2024-03-02T16:00:49;21.20;41.00
83828;DHT22;74656;48.870;12.562;2024-03-02T16:03:51;20.90;41.20
83828;DHT22;74656;48.870;12.562;2024-03-02T16:06:53;21.10;41.50
83828;DHT22;74656;48.870;12.562;2024-03-02T16:09:55;20.70;41.60
83828;DHT22;74656;48.870;12.562;2024-03-02T16:12:57;20.60;41.90
83828;DHT22;74656;48.870;12.562;2024-03-02T16:15:59;20.30;42.30
83828;DHT22;74656;48.870;12.562;2024-03-02T16:19:01;20.00;42.80
83828;DHT22;74656;48.870;12.562;2024-03-02T16:22:08;19.40;44.70
83828;DHT22;74656;48.870;12.562;2024-03-02T16:25:11;18.70;46.10
83828;DHT22;74656;48.870;12.562;2024-03-02T16:28:13;18.00;47.40
83828;DHT22;74656;48.870;12.562;2024-03-02T16:31:15;17.60;48.50
83828;DHT22;74656;48.870;12.562;2024-03-02T16:34:17;16.80;50.10
83828;DHT22;74656;48.870;12.562;2024-03-02T16:37:19;16.00;53.00
83828;DHT22;74656;48.870;12.562;2024-03-02T16:40:20;15.10;54.90
83828;DHT22;74656;48.870;12.562;2024-03-02T16:43:22;14.60;56.90
83828;DHT22;74656;48.870;12.562;2024-03-02T16:46:24;14.10;58.50
83828;DHT22;74656;48.870;12.562;2024-03-02T16:49:26;13.70;59.60
83828;DHT22;74656;48.870;12.562;2024-03-02T16:52:28;13.30;61.20
83828;DHT22;74656;48.870;12.562;2024-03-02T16:55:30;13.10;62.20
83828;DHT22;74656;48.870;12.562;2024-03-02T16:58:31;12.70;63.70
83828;DHT22;74656;48.870;12.562;2024-03-02T17:01:34;12.40;64.80
83828;DHT22;74656;48.870;12.562;2024-03-02T17:04:36;12.20;65.80
83828;DHT22;74656;48.870;12.562;2024-03-02T17:07:38;12.00;66.20
83828;DHT22;74656;48.870;12.562;2024-03-02T17:10:40;11.80;67.10
83828;DHT22;74656;48.870;12.562;2024-03-02T17:13:42;11.50;67.90
83828;DHT22;74656;48.870;12.562;2024-03-02T17:16:44;11.30;68.90
83828;DHT22;74656;48.870;12.562;2024-03-02T17:19:46;11.10;69.60
83828;DHT22;74656;48.870;12.562;2024-03-02T17:22:48;11.00;70.30
83828;DHT22;74656;48.870;12.562;2024-03-02T17:25:50;10.80;71.20
83828;DHT22;74656;48.870;12.562;2024-03-02T17:28:53;10.60;71.60
83828;DHT22;74656;48.870;12.562;2024-03-02T17:31:54;10.40;71.80
83828;DHT22;74656;48.870;12.562;2024-03-02T17:34:56;10.30;72.20
83828;DHT22;74656;48.870;12.562;2024-03-02T17:37:59;10.10;73.70
83828;DHT22;74656;48.870;12.562;2024-03-02T17:41:00;10.00;74.80
83828;DHT22;74656;48.870;12.562;2024-03-02T17:44:02;9.90;74.90
83828;DHT22;74656;48.870;12.562;2024-03-02T17:47:04;9.70;76.30
83828;DHT22;74656;48.870;12.562;2024-03-02T17:50:06;9.60;76.40
83828;DHT22;74656;48.870;12.562;2024-03-02T17:53:08;9.50;77.00
83828;DHT22;74656;48.870;12.562;2024-03-02T17:56:10;9.40;77.80
83828;DHT22;74656;48.870;12.562;2024-03-02T17:59:12;9.30;78.30
83828;DHT22;74656;48.870;12.562;2024-03-02T18:02:13;9.20;78.60
83828;DHT22;74656;48.870;12.562;2024-03-02T18:05:15;9.10;79.30
83828;DHT22;74656;48.870;12.562;2024-03-02T18:08:17;9.00;79.90
83828;DHT22;74656;48.870;12.562;2024-03-02T18:11:19;8.90;80.40
83828;DHT22;74656;48.870;12.562;2024-03-02T18:14:22;8.80;81.20
83828;DHT22;74656;48.870;12.562;2024-03-02T18:17:23;8.70;81.60
83828;DHT22;74656;48.870;12.562;2024-03-02T18:20:26;8.60;82.20
83828;DHT22;74656;48.870;12.562;2024-03-02T18:23:27;8.50;82.70
83828;DHT22;74656;48.870;12.562;2024-03-02T18:26:29;8.50;83.20
83828;DHT22;74656;48.870;12.562;2024-03-02T18:29:31;8.40;83.50
83828;DHT22;74656;48.870;12.562;2024-03-02T18:32:33;8.30;83.80
83828;DHT22;74656;48.870;12.562;2024-03-02T18:35:34;8.20;84.40
83828;DHT22;74656;48.870;12.562;2024-03-02T18:38:36;8.20;84.60
83828;DHT22;74656;48.870;12.562;2024-03-02T18:41:38;8.20;85.10
83828;DHT22;74656;48.870;12.562;2024-03-02T18:44:39;8.10;85.30
83828;DHT22;74656;48.870;12.562;2024-03-02T18:47:44;8.00;85.60
83828;DHT22;74656;48.870;12.562;2024-03-02T18:50:46;8.00;85.90
83828;DHT22;74656;48.870;12.562;2024-03-02T18:53:48;7.90;86.00
83828;DHT22;74656;48.870;12.562;2024-03-02T18:56:50;7.80;86.10
83828;DHT22;74656;48.870;12.562;2024-03-02T18:59:51;7.70;86.50
83828;DHT22;74656;48.870;12.562;2024-03-02T19:02:53;7.70;86.80
83828;DHT22;74656;48.870;12.562;2024-03-02T19:05:55;7.60;87.00
83828;DHT22;74656;48.870;12.562;2024-03-02T19:08:58;7.60;87.40